Time;durP1;ratioP1;P1;durP2;ratioP2;P2;SDS_P1;SDS_P2;PMS_P1;PMS_P2;Temp;Humidity;BMP_temperature;BMP_pressure;BME280_temperature;BME280_humidity;BME280_pressure;Samples;Min_cycle;Max_cycle;Signal;HPM_P1;HPM_P2
2021/12/16 00:02:16;;;;;;;0.45;0.10;;;;;;;;;;4196415;28;20106;-42
2021/12/16 00:07:05;;;;;;;0.65;0.30;;;;;;;;;;4196687;28;20078;-43
2021/12/16 00:09:09;;;;;;;0.57;0.30;;;;;;;;;;4196379;28;20068;-42
2021/12/16 00:19:19;;;;;;;0.43;0.20;;;;;;;;;;4196429;28;20064;-43
2021/12/16 00:34:24;;;;;;;0.20;0.10;;;;;;;;;;4196208;28;20051;-42
2021/12/16 00:36:25;;;;;;;1.15;0.30;;;;;;;;;;4196361;28;20052;-43
2021/12/16 00:38:26;;;;;;;0.40;0.22;;;;;;;;;;4195604;28;20115;-42
2021/12/16 00:40:27;;;;;;;0.20;0.20;;;;;;;;;;4196035;28;20044;-43
2021/12/16 00:42:52;;;;;;;0.70;0.20;;;;;;;;;;4196061;28;20083;-43
2021/12/16 00:45:19;;;;;;;0.38;0.20;;;;;;;;;;4196229;28;20094;-42
2021/12/16 00:47:32;;;;;;;0.40;0.20;;;;;;;;;;4196045;28;20044;-43
2021/12/16 00:49:38;;;;;;;0.60;0.28;;;;;;;;;;4194846;28;20125;-42
2021/12/16 00:54:12;;;;;;;;;;;;;;;;;;4196124;28;20051;-43
2021/12/16 00:56:15;;;;;;;0.43;0.20;;;;;;;;;;4197968;28;19958;-42
2021/12/16 00:58:19;;;;;;;0.20;0.10;;;;;;;;;;4197616;28;20053;-43
2021/12/16 01:00:25;;;;;;;0.80;0.20;;;;;;;;;;4198951;28;20049;-42
2021/12/16 01:02:44;;;;;;;0.47;0.30;;;;;;;;;;4198825;28;20049;-43
2021/12/16 01:50:13;;;;;;;0.40;0.30;;;;;;;;;;4196801;28;20343;-43
2021/12/16 01:58:34;;;;;;;0.60;0.30;;;;;;;;;;4196599;28;20060;-43
2021/12/16 02:00:55;;;;;;;0.57;0.20;;;;;;;;;;4196779;28;20492;-42
2021/12/16 02:03:04;;;;;;;0.40;0.20;;;;;;;;;;4180412;28;20099;-43
2021/12/16 02:07:47;;;;;;;0.50;0.22;;;;;;;;;;4195988;28;20537;-42
2021/12/16 02:09:45;;;;;;;0.70;0.30;;;;;;;;;;4181638;28;20411;-43
2021/12/16 02:12:02;;;;;;;0.50;0.30;;;;;;;;;;4179757;28;20049;-42
2021/12/16 02:31:09;;;;;;;0.60;0.38;;;;;;;;;;4196167;28;20052;-42
2021/12/16 02:37:16;;;;;;;0.43;0.20;;;;;;;;;;4149147;28;20092;-43
2021/12/16 02:39:24;;;;;;;0.75;0.30;;;;;;;;;;4179490;28;20048;-42
2021/12/16 02:41:26;;;;;;;0.20;0.20;;;;;;;;;;4193223;28;20098;-43
2021/12/16 02:50:14;;;;;;;0.10;0.10;;;;;;;;;;4196159;28;20049;-42
2021/12/16 02:52:17;;;;;;;0.50;0.20;;;;;;;;;;4196595;28;20177;-42
2021/12/16 02:54:18;;;;;;;0.65;0.20;;;;;;;;;;4195856;28;20044;-43
2021/12/16 02:56:19;;;;;;;1.45;0.20;;;;;;;;;;4197211;28;20052;-42
2021/12/16 02:58:21;;;;;;;1.27;0.30;;;;;;;;;;4197306;28;20048;-43
2021/12/16 03:00:22;;;;;;;0.68;0.30;;;;;;;;;;4196118;28;20106;-43
2021/12/16 03:02:25;;;;;;;0.55;0.20;;;;;;;;;;4195653;28;20053;-42
2021/12/16 03:04:28;;;;;;;0.55;0.15;;;;;;;;;;4195920;28;20052;-42
2021/12/16 03:06:31;;;;;;;0.63;0.20;;;;;;;;;;4197268;28;20053;-42
2021/12/16 03:08:33;;;;;;;0.32;0.20;;;;;;;;;;4195293;28;20052;-43
2021/12/16 03:13:00;;;;;;;;;;;;;;;;;;4196153;28;20467;-42
2021/12/16 03:15:13;;;;;;;0.43;0.10;;;;;;;;;;4212388;28;19920;-42
2021/12/16 03:17:22;;;;;;;0.30;0.10;;;;;;;;;;4196263;28;20056;-44
2021/12/16 03:19:54;;;;;;;0.65;0.20;;;;;;;;;;4196945;28;20052;-43
2021/12/16 03:21:59;;;;;;;0.85;0.20;;;;;;;;;;4196210;28;20056;-43
2021/12/16 03:24:30;;;;;;;0.52;0.30;;;;;;;;;;4195587;28;20476;-44
2021/12/16 03:36:04;;;;;;;0.47;0.20;;;;;;;;;;4196664;28;20059;-42
2021/12/16 03:38:07;;;;;;;1.17;0.30;;;;;;;;;;4196193;28;20112;-43
2021/12/16 03:40:11;;;;;;;0.20;0.03;;;;;;;;;;4196592;28;20499;-42
2021/12/16 03:42:14;;;;;;;0.20;0.10;;;;;;;;;;4195538;28;20067;-43
2021/12/16 03:44:17;;;;;;;1.95;0.20;;;;;;;;;;4196731;28;20107;-42
2021/12/16 03:46:27;;;;;;;0.30;0.20;;;;;;;;;;4195624;28;20082;-43
2021/12/16 03:48:31;;;;;;;0.88;0.47;;;;;;;;;;4195205;28;20484;-43
2021/12/16 03:50:33;;;;;;;0.17;0.10;;;;;;;;;;4195650;28;20181;-42
2021/12/16 03:52:34;;;;;;;0.50;0.20;;;;;;;;;;4194766;28;20052;-42
2021/12/16 03:54:40;;;;;;;0.22;0.10;;;;;;;;;;4195354;28;20102;-42
2021/12/16 03:56:42;;;;;;;0.60;0.13;;;;;;;;;;4195330;28;20044;-43
2021/12/16 03:58:48;;;;;;;0.95;0.20;;;;;;;;;;4195588;28;20048;-42
2021/12/16 04:00:55;;;;;;;0.68;0.28;;;;;;;;;;4178574;28;20100;-43
2021/12/16 04:02:57;;;;;;;1.10;0.20;;;;;;;;;;4195069;28;20075;-42
2021/12/16 04:05:05;;;;;;;0.08;0.08;;;;;;;;;;4211912;28;20044;-42
2021/12/16 04:07:09;;;;;;;0.50;0.28;;;;;;;;;;4194663;28;20048;-43
2021/12/16 04:09:39;;;;;;;;;;;;;;;;;;4197224;28;20139;-43
2021/12/16 04:12:03;;;;;;;0.43;0.20;;;;;;;;;;4195054;28;19969;-43
2021/12/16 04:14:06;;;;;;;0.40;0.13;;;;;;;;;;4195191;28;20414;-43
2021/12/16 04:16:13;;;;;;;0.40;0.20;;;;;;;;;;4194998;28;20052;-42
2021/12/16 04:18:14;;;;;;;0.40;0.20;;;;;;;;;;4195170;28;20049;-42
2021/12/16 04:20:16;;;;;;;0.43;0.20;;;;;;;;;;4195287;28;20044;-43
2021/12/16 04:22:26;;;;;;;0.25;0.25;;;;;;;;;;4195572;28;20451;-42
2021/12/16 04:24:29;;;;;;;0.30;0.20;;;;;;;;;;4195093;28;20407;-43
2021/12/16 04:26:31;;;;;;;0.28;0.10;;;;;;;;;;4195186;28;20107;-43
2021/12/16 04:28:32;;;;;;;0.10;0.10;;;;;;;;;;4196617;28;20048;-43
2021/12/16 04:30:35;;;;;;;0.55;0.20;;;;;;;;;;4197985;28;20557;-43
2021/12/16 04:32:39;;;;;;;1.17;0.10;;;;;;;;;;4198009;28;20484;-42
2021/12/16 04:34:40;;;;;;;0.73;0.28;;;;;;;;;;4198111;28;20052;-43
2021/12/16 04:36:41;;;;;;;0.10;0.10;;;;;;;;;;4197451;28;20074;-43
2021/12/16 04:38:44;;;;;;;0.30;0.20;;;;;;;;;;4199365;28;20045;-43
2021/12/16 04:40:47;;;;;;;0.88;0.20;;;;;;;;;;4181435;28;20049;-43
2021/12/16 04:42:52;;;;;;;0.70;0.13;;;;;;;;;;4197957;28;20049;-42
2021/12/16 04:44:53;;;;;;;0.10;0.10;;;;;;;;;;4197925;28;20074;-43
2021/12/16 04:46:55;;;;;;;0.40;0.15;;;;;;;;;;4197668;28;20060;-43
2021/12/16 04:48:59;;;;;;;0.60;0.30;;;;;;;;;;4198070;28;20055;-42
2021/12/16 04:51:07;;;;;;;0.57;0.15;;;;;;;;;;4197853;28;20052;-43
2021/12/16 04:53:08;;;;;;;0.40;0.20;;;;;;;;;;4197511;28;20052;-43
2021/12/16 04:55:13;;;;;;;1.20;0.22;;;;;;;;;;4197664;28;20078;-42
2021/12/16 04:57:15;;;;;;;0.60;0.30;;;;;;;;;;4197746;28;20052;-43
2021/12/16 04:59:20;;;;;;;0.40;0.22;;;;;;;;;;4197670;28;20052;-42
2021/12/16 05:01:23;;;;;;;0.13;0.10;;;;;;;;;;4181050;28;20045;-43
2021/12/16 05:03:25;;;;;;;0.22;0.05;;;;;;;;;;4197614;28;20395;-42
2021/12/16 05:05:26;;;;;;;0.47;0.20;;;;;;;;;;4197677;28;20056;-42
2021/12/16 05:07:28;;;;;;;0.63;0.10;;;;;;;;;;4196993;28;20082;-42
2021/12/16 05:10:25;;;;;;;0.20;0.10;;;;;;;;;;4198833;28;20078;-43
2021/12/16 05:12:24;;;;;;;1.05;0.13;;;;;;;;;;4196427;28;20053;-42
2021/12/16 05:14:24;;;;;;;1.40;0.40;;;;;;;;;;4198931;28;20064;-42
2021/12/16 05:16:26;;;;;;;0.38;0.20;;;;;;;;;;4197176;28;20056;-42
2021/12/16 05:18:32;;;;;;;0.20;0.20;;;;;;;;;;4198620;28;20079;-42
2021/12/16 05:20:38;;;;;;;0.25;0.17;;;;;;;;;;4214177;28;20052;-43
2021/12/16 05:25:00;;;;;;;0.20;0.10;;;;;;;;;;4197364;28;20377;-43
2021/12/16 05:27:02;;;;;;;0.45;0.20;;;;;;;;;;4198497;28;20110;-42
2021/12/16 05:29:04;;;;;;;0.30;0.10;;;;;;;;;;4197099;28;20056;-43
2021/12/16 05:31:05;;;;;;;0.70;0.20;;;;;;;;;;4197229;28;20087;-42
2021/12/16 05:33:12;;;;;;;0.52;0.30;;;;;;;;;;4197109;28;20566;-42
2021/12/16 05:35:25;;;;;;;0.55;0.15;;;;;;;;;;4197386;28;20114;-42
2021/12/16 05:37:27;;;;;;;0.43;0.20;;;;;;;;;;4198112;28;20131;-43
2021/12/16 05:39:28;;;;;;;0.40;0.28;;;;;;;;;;4197993;28;20510;-42
2021/12/16 05:41:49;;;;;;;0.52;0.10;;;;;;;;;;4184497;28;20106;-43
2021/12/16 05:43:52;;;;;;;0.82;0.20;;;;;;;;;;4196957;28;20059;-42
2021/12/16 05:45:54;;;;;;;0.68;0.20;;;;;;;;;;4213732;28;20056;-43
2021/12/16 05:47:57;;;;;;;0.73;0.28;;;;;;;;;;4196865;28;20068;-42
2021/12/16 05:49:58;;;;;;;0.32;0.20;;;;;;;;;;4196885;28;20053;-43
2021/12/16 05:51:59;;;;;;;0.60;0.13;;;;;;;;;;4197903;28;20106;-43
2021/12/16 05:54:01;;;;;;;0.57;0.30;;;;;;;;;;4196835;28;20378;-42
2021/12/16 05:56:11;;;;;;;0.82;0.20;;;;;;;;;;4196975;28;20052;-43
2021/12/16 05:58:18;;;;;;;0.55;0.10;;;;;;;;;;4196572;28;20412;-42
2021/12/16 06:00:21;;;;;;;0.20;0.20;;;;;;;;;;4197095;28;20052;-43
2021/12/16 06:02:23;;;;;;;1.45;0.20;;;;;;;;;;4196524;28;20117;-42
2021/12/16 06:04:24;;;;;;;0.57;0.17;;;;;;;;;;4196861;28;20071;-42
2021/12/16 06:06:29;;;;;;;0.63;0.20;;;;;;;;;;4196580;28;20070;-42
2021/12/16 06:08:31;;;;;;;0.45;0.20;;;;;;;;;;4196197;28;20068;-43
2021/12/16 06:12:48;;;;;;;0.30;0.20;;;;;;;;;;4197597;28;20108;-43
2021/12/16 06:26:44;;;;;;;1.20;0.25;;;;;;;;;;4173882;28;19916;-42
2021/12/16 06:28:47;;;;;;;0.15;0.10;;;;;;;;;;4181248;28;20060;-42
2021/12/16 06:30:48;;;;;;;0.90;0.10;;;;;;;;;;4194686;28;20048;-42
2021/12/16 06:32:49;;;;;;;0.30;0.20;;;;;;;;;;4196921;28;20044;-42
2021/12/16 06:34:50;;;;;;;2.17;0.28;;;;;;;;;;4191559;28;20087;-43
2021/12/16 06:36:51;;;;;;;0.43;0.10;;;;;;;;;;4193718;28;20097;-42
2021/12/16 06:38:52;;;;;;;0.30;0.15;;;;;;;;;;4178020;28;20485;-43
2021/12/16 06:41:01;;;;;;;0.50;0.20;;;;;;;;;;4178238;28;20378;-43
2021/12/16 06:43:22;;;;;;;0.30;0.30;;;;;;;;;;4196311;28;20048;-42
2021/12/16 06:45:28;;;;;;;0.82;0.30;;;;;;;;;;4192391;28;20048;-42
2021/12/16 06:47:45;;;;;;;0.55;0.20;;;;;;;;;;4181557;28;20485;-42
2021/12/16 06:49:48;;;;;;;0.47;0.13;;;;;;;;;;4180613;28;20045;-42
2021/12/16 06:51:54;;;;;;;0.20;0.20;;;;;;;;;;4189548;28;20055;-42
2021/12/16 06:54:11;;;;;;;0.28;0.10;;;;;;;;;;4197243;28;20108;-42
2021/12/16 06:56:23;;;;;;;0.60;0.20;;;;;;;;;;4196104;28;20044;-43
2021/12/16 06:58:46;;;;;;;0.32;0.17;;;;;;;;;;4196110;28;20117;-42
2021/12/16 07:00:49;;;;;;;0.80;0.28;;;;;;;;;;4197005;28;20048;-42
2021/12/16 07:03:00;;;;;;;1.40;0.10;;;;;;;;;;4194519;28;20045;-42
2021/12/16 07:05:00;;;;;;;;;;;;;;;;;;4193181;28;20465;-42
2021/12/16 07:07:02;;;;;;;0.10;0.10;;;;;;;;;;4190997;28;19955;-42
2021/12/16 07:09:08;;;;;;;0.43;0.13;;;;;;;;;;4181266;28;20358;-43
2021/12/16 07:11:09;;;;;;;0.65;0.20;;;;;;;;;;4181940;28;20114;-42
2021/12/16 07:13:17;;;;;;;0.90;0.08;;;;;;;;;;4197008;28;20076;-43
2021/12/16 07:15:23;;;;;;;0.63;0.30;;;;;;;;;;4202661;28;20047;-42
2021/12/16 07:17:25;;;;;;;0.77;0.20;;;;;;;;;;4195077;28;20501;-43
2021/12/16 07:19:26;;;;;;;0.30;0.20;;;;;;;;;;4190295;28;20098;-42
2021/12/16 07:21:27;;;;;;;0.35;0.20;;;;;;;;;;4191472;28;20044;-42
2021/12/16 07:23:28;;;;;;;0.65;0.17;;;;;;;;;;4190119;28;20060;-42
2021/12/16 07:25:29;;;;;;;0.82;0.25;;;;;;;;;;4204980;28;20056;-42
2021/12/16 07:27:32;;;;;;;0.28;0.10;;;;;;;;;;4190870;28;20550;-42
2021/12/16 07:29:34;;;;;;;0.73;0.20;;;;;;;;;;4190451;28;20049;-42
2021/12/16 07:31:36;;;;;;;0.30;0.20;;;;;;;;;;4193687;28;20449;-42
2021/12/16 07:33:38;;;;;;;0.85;0.20;;;;;;;;;;4198073;28;20052;-42
2021/12/16 07:35:40;;;;;;;0.30;0.20;;;;;;;;;;4197628;28;20056;-42
2021/12/16 07:37:41;;;;;;;1.08;0.20;;;;;;;;;;4193343;28;20056;-42
2021/12/16 07:39:44;;;;;;;0.80;0.25;;;;;;;;;;4192501;28;20119;-42
2021/12/16 07:41:51;;;;;;;0.20;0.10;;;;;;;;;;4192844;28;20048;-42
2021/12/16 07:44:09;;;;;;;0.57;0.20;;;;;;;;;;4185906;28;20386;-42
2021/12/16 07:46:11;;;;;;;0.55;0.30;;;;;;;;;;4193258;28;20091;-43
2021/12/16 07:48:12;;;;;;;0.28;0.10;;;;;;;;;;4194714;28;20433;-42
2021/12/16 07:50:14;;;;;;;0.98;0.20;;;;;;;;;;4210071;28;20047;-42
2021/12/16 07:52:17;;;;;;;0.88;0.20;;;;;;;;;;4196748;28;20052;-42
2021/12/16 07:54:19;;;;;;;1.08;0.32;;;;;;;;;;4198796;28;20102;-42
2021/12/16 07:56:20;;;;;;;1.23;0.20;;;;;;;;;;4191300;28;20098;-42
2021/12/16 07:58:23;;;;;;;0.77;0.20;;;;;;;;;;4186960;28;20444;-42
2021/12/16 08:00:26;;;;;;;0.77;0.40;;;;;;;;;;4189846;28;20123;-43
2021/12/16 08:02:27;;;;;;;0.85;0.30;;;;;;;;;;4187410;28;20106;-43
2021/12/16 08:04:29;;;;;;;0.20;0.20;;;;;;;;;;4194362;28;20049;-43
2021/12/16 08:06:31;;;;;;;0.93;0.30;;;;;;;;;;4196463;28;20056;-43
2021/12/16 08:08:32;;;;;;;0.28;0.20;;;;;;;;;;4200443;28;20055;-42
2021/12/16 08:10:34;;;;;;;0.90;0.40;;;;;;;;;;4200528;28;20102;-43
2021/12/16 08:12:35;;;;;;;1.45;0.30;;;;;;;;;;4197980;28;20051;-43
2021/12/16 08:14:36;;;;;;;0.22;0.13;;;;;;;;;;4195675;28;20110;-42
2021/12/16 08:16:38;;;;;;;0.63;0.30;;;;;;;;;;4197224;28;20186;-43
2021/12/16 08:18:39;;;;;;;0.30;0.15;;;;;;;;;;4192259;28;20874;-43
2021/12/16 08:20:40;;;;;;;1.23;0.30;;;;;;;;;;4192004;28;20114;-43
2021/12/16 08:22:43;;;;;;;2.10;0.38;;;;;;;;;;4191339;28;20503;-43
2021/12/16 08:24:44;;;;;;;0.57;0.32;;;;;;;;;;4193232;28;20508;-43
2021/12/16 08:26:46;;;;;;;0.68;0.22;;;;;;;;;;4186737;28;20059;-43
2021/12/16 08:28:48;;;;;;;1.95;0.40;;;;;;;;;;4190615;28;20053;-44
2021/12/16 08:30:49;;;;;;;2.83;0.30;;;;;;;;;;4191788;28;20045;-44
2021/12/16 08:32:50;;;;;;;1.10;0.50;;;;;;;;;;4189795;28;20200;-44
2021/12/16 08:34:51;;;;;;;0.88;0.20;;;;;;;;;;4187918;28;20094;-44
2021/12/16 08:36:53;;;;;;;0.43;0.22;;;;;;;;;;4189662;28;20045;-43
2021/12/16 08:38:54;;;;;;;1.65;0.30;;;;;;;;;;4194303;28;20098;-44
2021/12/16 08:40:57;;;;;;;0.88;0.30;;;;;;;;;;4191048;28;20400;-44
2021/12/16 08:43:00;;;;;;;0.55;0.20;;;;;;;;;;4195818;28;20069;-43
2021/12/16 08:45:02;;;;;;;0.57;0.20;;;;;;;;;;4194011;28;20091;-44
2021/12/16 08:47:06;;;;;;;0.38;0.30;;;;;;;;;;4195475;28;20151;-43
2021/12/16 08:49:07;;;;;;;0.65;0.32;;;;;;;;;;4194543;28;20048;-43
2021/12/16 08:51:09;;;;;;;0.60;0.20;;;;;;;;;;4193725;28;20048;-43
2021/12/16 08:53:10;;;;;;;2.28;0.30;;;;;;;;;;4194507;28;20044;-44
2021/12/16 08:55:12;;;;;;;0.85;0.32;;;;;;;;;;4196868;28;20056;-43
2021/12/16 08:57:13;;;;;;;0.57;0.30;;;;;;;;;;4201152;28;20526;-43
2021/12/16 08:59:14;;;;;;;0.40;0.20;;;;;;;;;;4196387;28;20044;-43
2021/12/16 09:01:17;;;;;;;1.63;0.47;;;;;;;;;;4194925;28;20101;-44
2021/12/16 09:03:18;;;;;;;0.40;0.20;;;;;;;;;;4196088;28;20045;-43
2021/12/16 09:05:20;;;;;;;0.60;0.20;;;;;;;;;;4191788;28;20454;-43
2021/12/16 09:07:21;;;;;;;0.70;0.60;;;;;;;;;;4194835;28;20090;-43
2021/12/16 09:09:22;;;;;;;0.93;0.40;;;;;;;;;;4194384;28;20350;-44
2021/12/16 09:11:24;;;;;;;0.55;0.35;;;;;;;;;;4196234;28;20049;-43
2021/12/16 09:13:25;;;;;;;1.63;0.30;;;;;;;;;;4199915;28;20063;-44
2021/12/16 09:15:27;;;;;;;0.20;0.20;;;;;;;;;;4196107;28;20067;-43
2021/12/16 09:17:28;;;;;;;0.88;0.30;;;;;;;;;;4193376;28;20400;-42
2021/12/16 09:19:29;;;;;;;1.00;0.32;;;;;;;;;;4193888;28;20136;-43
2021/12/16 09:21:32;;;;;;;0.28;0.28;;;;;;;;;;4193694;28;20052;-43
2021/12/16 09:23:33;;;;;;;0.80;0.32;;;;;;;;;;4193137;28;20058;-43
2021/12/16 09:25:34;;;;;;;0.85;0.43;;;;;;;;;;4194877;28;20450;-42
2021/12/16 09:27:36;;;;;;;0.80;0.40;;;;;;;;;;4197731;28;20048;-45
2021/12/16 09:29:37;;;;;;;0.65;0.32;;;;;;;;;;4196790;28;20115;-43
2021/12/16 09:31:38;;;;;;;0.55;0.30;;;;;;;;;;4195266;28;20113;-42
2021/12/16 09:33:44;;;;;;;0.82;0.30;;;;;;;;;;4191181;28;20044;-43
2021/12/16 09:35:48;;;;;;;1.10;0.30;;;;;;;;;;4190199;28;20044;-42
2021/12/16 09:37:49;;;;;;;0.75;0.40;;;;;;;;;;4192446;28;20060;-42
2021/12/16 09:39:50;;;;;;;0.60;0.30;;;;;;;;;;4198472;28;20105;-43
2021/12/16 09:41:51;;;;;;;0.60;0.38;;;;;;;;;;4196126;28;20044;-43
2021/12/16 09:43:53;;;;;;;1.48;0.50;;;;;;;;;;4196530;28;20443;-42
2021/12/16 09:45:55;;;;;;;2.17;0.30;;;;;;;;;;4192731;28;20429;-43
2021/12/16 09:47:57;;;;;;;1.52;0.40;;;;;;;;;;4195959;28;20503;-43
2021/12/16 09:49:58;;;;;;;1.63;0.70;;;;;;;;;;4189852;28;20057;-43
2021/12/16 09:51:59;;;;;;;0.73;0.32;;;;;;;;;;4193293;28;20052;-43
2021/12/16 09:54:04;;;;;;;0.30;0.30;;;;;;;;;;4193674;28;20451;-42
2021/12/16 09:56:08;;;;;;;0.75;0.30;;;;;;;;;;4192471;28;20085;-43
2021/12/16 09:58:10;;;;;;;1.08;0.47;;;;;;;;;;4194606;28;20460;-43
2021/12/16 10:00:12;;;;;;;1.58;0.25;;;;;;;;;;4194955;28;20072;-41
2021/12/16 10:02:15;;;;;;;1.27;0.40;;;;;;;;;;4195396;28;20048;-43
2021/12/16 10:04:20;;;;;;;0.73;0.40;;;;;;;;;;4192819;28;20374;-42
2021/12/16 10:06:21;;;;;;;1.45;0.30;;;;;;;;;;4195571;28;20120;-43
2021/12/16 10:08:22;;;;;;;0.85;0.30;;;;;;;;;;4196332;28;20044;-42
2021/12/16 10:10:25;;;;;;;1.23;0.40;;;;;;;;;;4197394;28;20464;-43
2021/12/16 10:12:32;;;;;;;1.20;0.70;;;;;;;;;;4192630;28;20381;-41
2021/12/16 10:14:47;;;;;;;2.15;0.55;;;;;;;;;;4192052;28;20089;-42
2021/12/16 10:19:08;;;;;;;0.30;0.20;;;;;;;;;;4191979;28;20106;-44
2021/12/16 10:21:11;;;;;;;1.58;0.28;;;;;;;;;;4194025;28;20052;-42
2021/12/16 10:23:15;;;;;;;0.77;0.20;;;;;;;;;;4189726;28;20052;-43
2021/12/16 10:25:21;;;;;;;3.03;0.35;;;;;;;;;;4192362;28;20181;-43
2021/12/16 10:27:24;;;;;;;0.70;0.30;;;;;;;;;;4205440;28;20060;-43
2021/12/16 10:29:39;;;;;;;0.80;0.30;;;;;;;;;;4187377;28;20111;-43
2021/12/16 10:31:42;;;;;;;0.98;0.30;;;;;;;;;;4184484;28;20056;-42
2021/12/16 10:33:48;;;;;;;3.90;0.50;;;;;;;;;;4190577;28;20455;-43
2021/12/16 10:35:55;;;;;;;1.63;0.32;;;;;;;;;;4188602;28;20114;-43
2021/12/16 10:37:59;;;;;;;0.50;0.30;;;;;;;;;;4188500;28;20052;-43
2021/12/16 10:40:18;;;;;;;1.05;0.40;;;;;;;;;;4194818;28;20040;-43
2021/12/16 10:42:19;;;;;;;0.82;0.40;;;;;;;;;;4195690;28;20048;-42
2021/12/16 10:44:22;;;;;;;1.05;0.40;;;;;;;;;;4190878;28;20463;-42
2021/12/16 10:46:26;;;;;;;3.33;0.70;;;;;;;;;;4189021;28;20048;-43
2021/12/16 10:48:34;;;;;;;6.35;0.65;;;;;;;;;;4190080;28;20056;-42
2021/12/16 10:50:47;;;;;;;2.97;0.90;;;;;;;;;;4194044;28;20435;-42
2021/12/16 10:52:48;;;;;;;1.75;0.55;;;;;;;;;;4190549;28;20044;-44
2021/12/16 10:54:49;;;;;;;3.17;0.40;;;;;;;;;;4193460;28;20067;-44
2021/12/16 10:56:56;;;;;;;2.67;0.40;;;;;;;;;;4191316;28;20052;-45
2021/12/16 10:58:57;;;;;;;1.55;0.60;;;;;;;;;;4190946;28;20053;-44
2021/12/16 11:00:58;;;;;;;2.55;0.68;;;;;;;;;;4189647;28;20441;-44
2021/12/16 11:02:59;;;;;;;0.80;0.47;;;;;;;;;;4188174;28;20055;-43
2021/12/16 11:05:03;;;;;;;1.20;0.50;;;;;;;;;;4187270;28;20549;-43
2021/12/16 11:07:24;;;;;;;1.13;0.60;;;;;;;;;;4188413;28;20536;-42
2021/12/16 11:09:35;;;;;;;2.92;0.50;;;;;;;;;;4189397;28;20048;-42
2021/12/16 11:11:35;;;;;;;0.88;0.40;;;;;;;;;;4185550;28;20048;-44
2021/12/16 11:13:40;;;;;;;1.38;0.47;;;;;;;;;;4192891;28;20082;-44
2021/12/16 11:15:46;;;;;;;1.20;0.50;;;;;;;;;;4188229;28;20052;-44
2021/12/16 11:17:49;;;;;;;0.75;0.50;;;;;;;;;;4191469;28;20048;-44
2021/12/16 11:19:53;;;;;;;3.00;0.60;;;;;;;;;;4190922;28;20105;-43
2021/12/16 11:22:01;;;;;;;0.98;0.50;;;;;;;;;;4195665;28;20056;-44
2021/12/16 11:24:20;;;;;;;2.38;0.90;;;;;;;;;;4195059;28;20048;-42
2021/12/16 11:26:26;;;;;;;1.35;0.63;;;;;;;;;;4189312;28;20044;-42
2021/12/16 11:28:28;;;;;;;1.60;0.60;;;;;;;;;;4195537;28;20090;-43
2021/12/16 11:30:40;;;;;;;1.45;0.50;;;;;;;;;;4190681;28;20056;-43
2021/12/16 11:32:43;;;;;;;1.52;0.50;;;;;;;;;;4184075;28;20436;-43
2021/12/16 11:34:44;;;;;;;2.05;0.57;;;;;;;;;;4194532;28;20071;-44
2021/12/16 11:36:47;;;;;;;2.67;0.85;;;;;;;;;;4189215;28;20435;-43
2021/12/16 11:38:59;;;;;;;1.58;0.45;;;;;;;;;;4185539;28;20060;-44
2021/12/16 11:41:06;;;;;;;1.95;0.40;;;;;;;;;;4188895;28;20052;-44
2021/12/16 11:43:07;;;;;;;1.33;0.40;;;;;;;;;;4192988;28;20044;-45
2021/12/16 11:45:08;;;;;;;2.25;0.50;;;;;;;;;;4189001;28;20397;-44
2021/12/16 11:47:20;;;;;;;1.30;0.47;;;;;;;;;;4191605;28;20044;-44
2021/12/16 11:49:33;;;;;;;0.50;0.30;;;;;;;;;;4192432;28;20049;-42
2021/12/16 11:51:42;;;;;;;1.58;0.40;;;;;;;;;;4189466;28;21252;-43
2021/12/16 11:53:46;;;;;;;1.50;0.50;;;;;;;;;;4187499;28;20106;-43
2021/12/16 11:55:49;;;;;;;1.48;0.50;;;;;;;;;;4181464;28;20072;-43
2021/12/16 11:57:53;;;;;;;1.75;0.50;;;;;;;;;;4176812;28;20063;-43
2021/12/16 11:59:58;;;;;;;4.68;0.50;;;;;;;;;;4183866;28;20050;-43
2021/12/16 12:02:00;;;;;;;2.65;0.40;;;;;;;;;;4185710;28;20048;-42
2021/12/16 12:04:05;;;;;;;1.55;0.40;;;;;;;;;;4187200;28;20104;-43
2021/12/16 12:06:17;;;;;;;2.42;0.40;;;;;;;;;;4187532;28;20118;-43
2021/12/16 12:08:26;;;;;;;0.82;0.50;;;;;;;;;;4185807;28;20052;-43
2021/12/16 12:10:33;;;;;;;0.82;0.40;;;;;;;;;;4190921;28;20375;-43
2021/12/16 12:12:47;;;;;;;0.73;0.32;;;;;;;;;;4189275;28;20377;-43
2021/12/16 12:14:48;;;;;;;0.93;0.30;;;;;;;;;;4187459;28;20113;-43
2021/12/16 12:16:52;;;;;;;1.00;0.45;;;;;;;;;;4188109;28;20040;-43
2021/12/16 12:19:12;;;;;;;1.23;0.65;;;;;;;;;;4193155;28;20494;-43
2021/12/16 12:21:19;;;;;;;1.08;0.30;;;;;;;;;;4188792;28;20045;-43
2021/12/16 12:23:20;;;;;;;1.83;0.43;;;;;;;;;;4186733;28;20049;-43
2021/12/16 12:25:21;;;;;;;1.60;0.55;;;;;;;;;;4184816;28;20500;-43
2021/12/16 12:27:25;;;;;;;0.93;0.40;;;;;;;;;;4191653;28;20098;-43
2021/12/16 12:29:34;;;;;;;1.27;0.52;;;;;;;;;;4189967;28;20090;-43
2021/12/16 12:31:37;;;;;;;0.82;0.40;;;;;;;;;;4188426;28;20048;-43
2021/12/16 12:33:38;;;;;;;2.13;0.43;;;;;;;;;;4189877;28;20490;-42
2021/12/16 12:35:39;;;;;;;1.45;0.50;;;;;;;;;;4185416;28;20048;-42
2021/12/16 12:37:42;;;;;;;0.65;0.30;;;;;;;;;;4189527;28;20110;-42
2021/12/16 12:39:45;;;;;;;0.85;0.30;;;;;;;;;;4195242;28;20455;-42
2021/12/16 12:41:47;;;;;;;0.60;0.30;;;;;;;;;;4189254;28;20435;-43
2021/12/16 12:43:48;;;;;;;1.85;0.50;;;;;;;;;;4186452;28;20131;-42
2021/12/16 12:45:49;;;;;;;1.25;0.52;;;;;;;;;;4186371;28;20470;-42
2021/12/16 12:47:52;;;;;;;1.27;0.40;;;;;;;;;;4193467;28;20086;-42
2021/12/16 12:50:04;;;;;;;2.25;0.55;;;;;;;;;;4193001;28;20094;-42
2021/12/16 12:52:05;;;;;;;0.93;0.50;;;;;;;;;;4193480;28;20045;-42
2021/12/16 12:54:26;;;;;;;0.52;0.30;;;;;;;;;;4192806;28;20128;-42
2021/12/16 12:56:29;;;;;;;1.58;0.35;;;;;;;;;;4193992;28;20044;-43
2021/12/16 12:58:33;;;;;;;0.80;0.40;;;;;;;;;;4193823;28;20055;-42
2021/12/16 13:00:36;;;;;;;1.13;0.43;;;;;;;;;;4186823;28;20052;-42
2021/12/16 13:02:39;;;;;;;0.70;0.30;;;;;;;;;;4193126;28;20056;-42
2021/12/16 13:04:49;;;;;;;0.95;0.40;;;;;;;;;;4210509;28;20048;-43
2021/12/16 13:06:49;;;;;;;1.13;0.55;;;;;;;;;;4192537;28;20492;-42
2021/12/16 13:08:50;;;;;;;0.52;0.20;;;;;;;;;;4190530;28;20053;-42
2021/12/16 13:10:56;;;;;;;0.85;0.43;;;;;;;;;;4193541;28;20288;-43
2021/12/16 13:13:26;;;;;;;1.23;0.63;;;;;;;;;;4191013;28;20090;-42
2021/12/16 13:15:39;;;;;;;1.40;0.47;;;;;;;;;;4193795;28;20048;-43
2021/12/16 13:26:46;;;;;;;0.52;0.30;;;;;;;;;;4195388;28;20052;-42
2021/12/16 13:29:01;;;;;;;0.68;0.20;;;;;;;;;;4184332;28;20061;-42
2021/12/16 13:31:07;;;;;;;0.50;0.30;;;;;;;;;;4189441;28;20144;-42
2021/12/16 13:33:23;;;;;;;1.58;0.60;;;;;;;;;;4169278;28;20049;-42
2021/12/16 13:35:34;;;;;;;1.42;0.28;;;;;;;;;;4192973;28;20061;-42
2021/12/16 13:37:37;;;;;;;0.25;0.20;;;;;;;;;;4193233;28;20093;-42
2021/12/16 13:39:43;;;;;;;0.20;0.10;;;;;;;;;;4190342;28;20049;-43
2021/12/16 13:41:55;;;;;;;0.85;0.35;;;;;;;;;;4194923;28;20432;-43
2021/12/16 13:43:59;;;;;;;0.60;0.28;;;;;;;;;;4192988;28;20111;-42
2021/12/16 13:46:38;;;;;;;1.20;0.40;;;;;;;;;;4192544;28;20040;-42
2021/12/16 13:48:49;;;;;;;1.08;0.30;;;;;;;;;;4189573;28;20044;-43
2021/12/16 14:01:08;;;;;;;0.77;0.20;;;;;;;;;;4186408;28;20098;-42
2021/12/16 14:03:18;;;;;;;1.02;0.20;;;;;;;;;;4184433;28;20052;-43
2021/12/16 14:05:40;;;;;;;2.05;0.30;;;;;;;;;;4200309;28;20492;-42
2021/12/16 14:07:54;;;;;;;1.70;0.30;;;;;;;;;;4196790;28;20434;-42
2021/12/16 14:10:08;;;;;;;1.75;0.38;;;;;;;;;;4195875;28;20416;-43
2021/12/16 14:14:59;;;;;;;2.00;0.60;;;;;;;;;;4195416;28;20453;-43
2021/12/16 14:23:34;;;;;;;0.63;0.32;;;;;;;;;;4195347;28;19924;-42
2021/12/16 14:26:09;;;;;;;0.30;0.17;;;;;;;;;;4192434;28;20048;-42
2021/12/16 14:35:00;;;;;;;2.05;0.20;;;;;;;;;;4189022;28;20495;-38
2021/12/16 14:37:28;;;;;;;0.30;0.30;;;;;;;;;;4194302;28;20641;-35
2021/12/16 14:42:08;;;;;;;1.48;0.30;;;;;;;;;;4196908;28;20357;-35
2021/12/16 14:46:12;;;;;;;0.50;0.20;;;;;;;;;;4193988;28;20094;-35
2021/12/16 14:48:31;;;;;;;0.30;0.10;;;;;;;;;;4195628;28;20472;-35
2021/12/16 14:50:32;;;;;;;0.85;0.17;;;;;;;;;;4196865;28;20063;-35
2021/12/16 14:52:34;;;;;;;0.30;0.20;;;;;;;;;;4193021;28;20049;-34
2021/12/16 14:54:44;;;;;;;0.30;0.20;;;;;;;;;;4198447;28;20060;-34
2021/12/16 14:56:45;;;;;;;0.47;0.20;;;;;;;;;;4175905;28;20087;-34
2021/12/16 14:58:52;;;;;;;1.30;0.30;;;;;;;;;;4194807;28;20138;-34
2021/12/16 15:00:55;;;;;;;1.00;0.30;;;;;;;;;;4212134;28;20043;-34
2021/12/16 15:03:01;;;;;;;1.55;0.22;;;;;;;;;;4195103;28;20106;-34
2021/12/16 15:05:03;;;;;;;0.20;0.10;;;;;;;;;;4195520;28;20118;-34
2021/12/16 15:07:07;;;;;;;1.80;0.32;;;;;;;;;;4196297;28;20582;-35
2021/12/16 15:09:20;;;;;;;0.80;0.20;;;;;;;;;;4195514;28;20557;-34
2021/12/16 15:11:30;;;;;;;0.55;0.30;;;;;;;;;;4208779;28;20063;-34
2021/12/16 15:13:38;;;;;;;0.20;0.13;;;;;;;;;;4194783;28;20044;-34
2021/12/16 15:15:49;;;;;;;1.38;0.10;;;;;;;;;;4193609;28;20048;-35
2021/12/16 15:34:47;;;;;;;0.68;0.20;;;;;;;;;;4194242;28;20052;-35
2021/12/16 15:36:48;;;;;;;0.70;0.20;;;;;;;;;;4178390;28;20079;-37
2021/12/16 15:39:09;;;;;;;0.30;0.10;;;;;;;;;;4193614;28;20048;-35
2021/12/16 15:43:33;;;;;;;;;;;;;;;;;;4193146;28;20101;-36
2021/12/16 15:45:37;;;;;;;0.40;0.15;;;;;;;;;;4189309;28;19963;-36
2021/12/16 15:47:39;;;;;;;0.28;0.20;;;;;;;;;;4194294;28;20086;-36
2021/12/16 15:49:40;;;;;;;1.63;0.20;;;;;;;;;;4193444;28;20447;-36
2021/12/16 15:51:41;;;;;;;0.10;0.10;;;;;;;;;;4194360;28;20048;-36
2021/12/16 15:53:47;;;;;;;1.15;0.25;;;;;;;;;;4193678;28;20048;-35